Terminal Aerodrome Forecast
Issued by NWS Green Bay, WI

Home | Current Version | Previous Version | Text Only | Print | Product List | Glossary On
Versions: 1 2 3 4 5 6 7 8 9 10 11 12 13 14 15 16
000
FTUS43 KGRB 241900 AAB
TAFGRB
TAF AMD
KGRB 241900Z 2419/2518 04012KT 5SM -RA OVC007
     FM250300 04014G20KT 3SM -RA OVC007
     FM251500 05017G27KT P6SM OVC008=

USA.gov is the U.S. government's official web portal to all federal, state and local government web resources and services.